sensor_id;sensor_type;location;lat;lon;timestamp;P1;durP1;ratioP1;P2;durP2;ratioP2
75261;SDS011;63859;51.064;4.580;2023-07-16T00:01:31;7.03;;;2.60;;
75261;SDS011;63859;51.064;4.580;2023-07-16T00:03:56;9.07;;;2.30;;
75261;SDS011;63859;51.064;4.580;2023-07-16T00:06:22;5.63;;;2.60;;
75261;SDS011;63859;51.064;4.580;2023-07-16T00:08:47;8.52;;;2.50;;
75261;SDS011;63859;51.064;4.580;2023-07-16T00:11:13;11.68;;;2.90;;
75261;SDS011;63859;51.064;4.580;2023-07-16T00:13:39;8.63;;;2.58;;
75261;SDS011;63859;51.064;4.580;2023-07-16T00:16:10;10.52;;;2.58;;
75261;SDS011;63859;51.064;4.580;2023-07-16T00:18:37;8.50;;;2.72;;
75261;SDS011;63859;51.064;4.580;2023-07-16T00:21:02;7.68;;;2.40;;
75261;SDS011;63859;51.064;4.580;2023-07-16T00:23:28;10.18;;;2.80;;
75261;SDS011;63859;51.064;4.580;2023-07-16T00:25:53;9.20;;;2.55;;
75261;SDS011;63859;51.064;4.580;2023-07-16T00:28:19;6.97;;;2.40;;
75261;SDS011;63859;51.064;4.580;2023-07-16T00:30:45;7.40;;;2.38;;
75261;SDS011;63859;51.064;4.580;2023-07-16T00:33:11;13.63;;;2.70;;
75261;SDS011;63859;51.064;4.580;2023-07-16T00:35:36;10.25;;;2.53;;
75261;SDS011;63859;51.064;4.580;2023-07-16T00:38:02;7.82;;;2.70;;
75261;SDS011;63859;51.064;4.580;2023-07-16T00:40:27;7.90;;;2.80;;
75261;SDS011;63859;51.064;4.580;2023-07-16T00:42:53;10.13;;;2.70;;
75261;SDS011;63859;51.064;4.580;2023-07-16T00:45:19;6.07;;;2.92;;
75261;SDS011;63859;51.064;4.580;2023-07-16T00:47:44;6.05;;;2.53;;
75261;SDS011;63859;51.064;4.580;2023-07-16T00:50:11;7.72;;;2.83;;
75261;SDS011;63859;51.064;4.580;2023-07-16T00:52:37;11.45;;;3.08;;
75261;SDS011;63859;51.064;4.580;2023-07-16T00:55:04;6.78;;;2.50;;
75261;SDS011;63859;51.064;4.580;2023-07-16T00:57:31;12.18;;;2.75;;
75261;SDS011;63859;51.064;4.580;2023-07-16T00:59:57;8.52;;;2.92;;
75261;SDS011;63859;51.064;4.580;2023-07-16T01:02:23;10.30;;;2.80;;
75261;SDS011;63859;51.064;4.580;2023-07-16T01:04:49;7.35;;;2.60;;
75261;SDS011;63859;51.064;4.580;2023-07-16T01:07:14;8.77;;;3.13;;
75261;SDS011;63859;51.064;4.580;2023-07-16T01:09:42;11.77;;;3.10;;
75261;SDS011;63859;51.064;4.580;2023-07-16T01:12:09;7.50;;;2.67;;
75261;SDS011;63859;51.064;4.580;2023-07-16T01:14:36;10.65;;;2.65;;
75261;SDS011;63859;51.064;4.580;2023-07-16T01:17:03;10.23;;;2.88;;
75261;SDS011;63859;51.064;4.580;2023-07-16T01:19:31;10.98;;;2.63;;
75261;SDS011;63859;51.064;4.580;2023-07-16T01:22:08;11.60;;;3.22;;
75261;SDS011;63859;51.064;4.580;2023-07-16T01:30:30;8.13;;;2.33;;
75261;SDS011;63859;51.064;4.580;2023-07-16T01:32:57;13.02;;;3.22;;
75261;SDS011;63859;51.064;4.580;2023-07-16T01:35:23;13.07;;;2.90;;
75261;SDS011;63859;51.064;4.580;2023-07-16T01:37:50;14.10;;;3.25;;
75261;SDS011;63859;51.064;4.580;2023-07-16T01:40:16;11.43;;;2.80;;
75261;SDS011;63859;51.064;4.580;2023-07-16T01:42:43;11.02;;;2.85;;
75261;SDS011;63859;51.064;4.580;2023-07-16T01:45:08;8.95;;;2.78;;
75261;SDS011;63859;51.064;4.580;2023-07-16T01:50:05;11.77;;;3.47;;
75261;SDS011;63859;51.064;4.580;2023-07-16T01:52:31;14.75;;;3.33;;
75261;SDS011;63859;51.064;4.580;2023-07-16T01:54:57;12.93;;;3.03;;
75261;SDS011;63859;51.064;4.580;2023-07-16T01:57:23;11.50;;;2.90;;
75261;SDS011;63859;51.064;4.580;2023-07-16T01:59:48;7.80;;;3.40;;
75261;SDS011;63859;51.064;4.580;2023-07-16T02:02:14;13.45;;;3.38;;
75261;SDS011;63859;51.064;4.580;2023-07-16T02:04:40;8.75;;;3.13;;
75261;SDS011;63859;51.064;4.580;2023-07-16T02:07:05;9.18;;;3.75;;
75261;SDS011;63859;51.064;4.580;2023-07-16T02:09:31;13.35;;;3.60;;
75261;SDS011;63859;51.064;4.580;2023-07-16T02:11:58;9.98;;;3.83;;
75261;SDS011;63859;51.064;4.580;2023-07-16T02:14:24;11.10;;;3.90;;
75261;SDS011;63859;51.064;4.580;2023-07-16T02:16:49;9.40;;;3.47;;
75261;SDS011;63859;51.064;4.580;2023-07-16T02:19:15;9.13;;;3.50;;
75261;SDS011;63859;51.064;4.580;2023-07-16T02:21:40;10.73;;;3.75;;
75261;SDS011;63859;51.064;4.580;2023-07-16T02:24:06;13.27;;;4.10;;
75261;SDS011;63859;51.064;4.580;2023-07-16T02:26:32;10.30;;;3.60;;
75261;SDS011;63859;51.064;4.580;2023-07-16T02:28:57;10.73;;;4.22;;
75261;SDS011;63859;51.064;4.580;2023-07-16T02:31:24;14.05;;;3.72;;
75261;SDS011;63859;51.064;4.580;2023-07-16T02:33:50;9.40;;;3.70;;
75261;SDS011;63859;51.064;4.580;2023-07-16T02:36:15;10.02;;;3.85;;
75261;SDS011;63859;51.064;4.580;2023-07-16T02:38:41;11.95;;;3.42;;
75261;SDS011;63859;51.064;4.580;2023-07-16T02:41:06;13.40;;;3.50;;
75261;SDS011;63859;51.064;4.580;2023-07-16T02:43:32;10.60;;;3.63;;
75261;SDS011;63859;51.064;4.580;2023-07-16T02:45:58;11.23;;;3.53;;
75261;SDS011;63859;51.064;4.580;2023-07-16T02:48:23;9.02;;;3.80;;
75261;SDS011;63859;51.064;4.580;2023-07-16T02:50:49;13.60;;;3.50;;
75261;SDS011;63859;51.064;4.580;2023-07-16T02:53:15;13.13;;;3.53;;
75261;SDS011;63859;51.064;4.580;2023-07-16T02:55:40;7.63;;;3.63;;
75261;SDS011;63859;51.064;4.580;2023-07-16T02:58:06;12.52;;;4.00;;
75261;SDS011;63859;51.064;4.580;2023-07-16T03:00:32;10.20;;;3.90;;
75261;SDS011;63859;51.064;4.580;2023-07-16T03:02:58;7.30;;;3.58;;
75261;SDS011;63859;51.064;4.580;2023-07-16T03:05:25;8.02;;;3.83;;
75261;SDS011;63859;51.064;4.580;2023-07-16T03:07:51;10.65;;;3.70;;
75261;SDS011;63859;51.064;4.580;2023-07-16T03:10:17;14.80;;;4.20;;
75261;SDS011;63859;51.064;4.580;2023-07-16T03:12:42;12.52;;;4.32;;
75261;SDS011;63859;51.064;4.580;2023-07-16T03:15:08;10.23;;;4.18;;
75261;SDS011;63859;51.064;4.580;2023-07-16T03:17:34;10.60;;;5.10;;
75261;SDS011;63859;51.064;4.580;2023-07-16T03:20:00;13.77;;;4.30;;
75261;SDS011;63859;51.064;4.580;2023-07-16T03:22:27;12.73;;;4.30;;
75261;SDS011;63859;51.064;4.580;2023-07-16T03:24:52;14.68;;;4.80;;
75261;SDS011;63859;51.064;4.580;2023-07-16T03:27:18;10.98;;;4.45;;
75261;SDS011;63859;51.064;4.580;2023-07-16T03:29:43;16.65;;;4.90;;
75261;SDS011;63859;51.064;4.580;2023-07-16T03:32:09;13.00;;;4.45;;
75261;SDS011;63859;51.064;4.580;2023-07-16T03:34:34;10.77;;;4.53;;
75261;SDS011;63859;51.064;4.580;2023-07-16T03:37:00;9.63;;;4.47;;
75261;SDS011;63859;51.064;4.580;2023-07-16T03:39:26;12.55;;;4.82;;
75261;SDS011;63859;51.064;4.580;2023-07-16T03:41:51;12.95;;;4.45;;
75261;SDS011;63859;51.064;4.580;2023-07-16T03:44:17;8.30;;;4.20;;
75261;SDS011;63859;51.064;4.580;2023-07-16T03:46:43;14.88;;;5.10;;
75261;SDS011;63859;51.064;4.580;2023-07-16T03:49:08;12.43;;;4.90;;
75261;SDS011;63859;51.064;4.580;2023-07-16T03:51:34;10.77;;;4.68;;
75261;SDS011;63859;51.064;4.580;2023-07-16T03:53:59;19.10;;;5.50;;
75261;SDS011;63859;51.064;4.580;2023-07-16T03:56:25;13.13;;;5.07;;
75261;SDS011;63859;51.064;4.580;2023-07-16T03:58:51;17.00;;;5.18;;
75261;SDS011;63859;51.064;4.580;2023-07-16T04:01:17;8.65;;;4.72;;
75261;SDS011;63859;51.064;4.580;2023-07-16T04:03:42;9.60;;;4.82;;
75261;SDS011;63859;51.064;4.580;2023-07-16T04:06:09;10.68;;;5.65;;
75261;SDS011;63859;51.064;4.580;2023-07-16T04:08:35;13.13;;;5.00;;
75261;SDS011;63859;51.064;4.580;2023-07-16T04:11:05;15.40;;;5.10;;
75261;SDS011;63859;51.064;4.580;2023-07-16T04:13:31;11.00;;;4.93;;
75261;SDS011;63859;51.064;4.580;2023-07-16T04:15:57;13.02;;;5.30;;
75261;SDS011;63859;51.064;4.580;2023-07-16T04:18:23;12.63;;;4.68;;
75261;SDS011;63859;51.064;4.580;2023-07-16T04:20:52;10.05;;;5.03;;
75261;SDS011;63859;51.064;4.580;2023-07-16T04:23:18;13.68;;;5.13;;
75261;SDS011;63859;51.064;4.580;2023-07-16T04:25:43;13.13;;;5.40;;
75261;SDS011;63859;51.064;4.580;2023-07-16T04:28:12;14.45;;;5.63;;
75261;SDS011;63859;51.064;4.580;2023-07-16T04:30:38;19.98;;;6.10;;
75261;SDS011;63859;51.064;4.580;2023-07-16T04:33:04;13.88;;;4.85;;
75261;SDS011;63859;51.064;4.580;2023-07-16T04:35:29;17.83;;;6.00;;
75261;SDS011;63859;51.064;4.580;2023-07-16T04:37:55;13.07;;;5.40;;
75261;SDS011;63859;51.064;4.580;2023-07-16T04:40:21;17.58;;;5.38;;
75261;SDS011;63859;51.064;4.580;2023-07-16T04:42:47;11.15;;;4.93;;
75261;SDS011;63859;51.064;4.580;2023-07-16T04:45:12;10.63;;;5.13;;
75261;SDS011;63859;51.064;4.580;2023-07-16T04:47:38;15.68;;;5.55;;
75261;SDS011;63859;51.064;4.580;2023-07-16T04:50:04;16.80;;;5.53;;
75261;SDS011;63859;51.064;4.580;2023-07-16T04:52:30;11.50;;;6.00;;
75261;SDS011;63859;51.064;4.580;2023-07-16T04:54:56;16.30;;;6.03;;
75261;SDS011;63859;51.064;4.580;2023-07-16T04:57:22;16.20;;;7.65;;
75261;SDS011;63859;51.064;4.580;2023-07-16T04:59:47;14.20;;;5.90;;
75261;SDS011;63859;51.064;4.580;2023-07-16T05:02:13;12.68;;;5.30;;
75261;SDS011;63859;51.064;4.580;2023-07-16T05:04:41;17.90;;;5.38;;
75261;SDS011;63859;51.064;4.580;2023-07-16T05:07:09;8.80;;;5.30;;
75261;SDS011;63859;51.064;4.580;2023-07-16T05:09:34;11.20;;;5.93;;
75261;SDS011;63859;51.064;4.580;2023-07-16T05:12:00;17.90;;;5.85;;
75261;SDS011;63859;51.064;4.580;2023-07-16T05:14:26;14.00;;;5.82;;
75261;SDS011;63859;51.064;4.580;2023-07-16T05:16:52;13.13;;;5.63;;
75261;SDS011;63859;51.064;4.580;2023-07-16T05:19:18;13.85;;;5.35;;
75261;SDS011;63859;51.064;4.580;2023-07-16T05:21:44;15.35;;;5.95;;
75261;SDS011;63859;51.064;4.580;2023-07-16T05:24:09;11.43;;;5.38;;
75261;SDS011;63859;51.064;4.580;2023-07-16T05:26:35;18.50;;;6.20;;
75261;SDS011;63859;51.064;4.580;2023-07-16T05:29:01;13.95;;;5.95;;
75261;SDS011;63859;51.064;4.580;2023-07-16T05:31:27;13.05;;;5.80;;
75261;SDS011;63859;51.064;4.580;2023-07-16T05:33:52;13.13;;;6.28;;
75261;SDS011;63859;51.064;4.580;2023-07-16T05:36:18;13.18;;;6.05;;
75261;SDS011;63859;51.064;4.580;2023-07-16T05:38:43;21.08;;;6.85;;
75261;SDS011;63859;51.064;4.580;2023-07-16T05:41:09;13.25;;;6.28;;
75261;SDS011;63859;51.064;4.580;2023-07-16T05:43:35;14.15;;;6.10;;
75261;SDS011;63859;51.064;4.580;2023-07-16T05:46:00;13.00;;;6.65;;
75261;SDS011;63859;51.064;4.580;2023-07-16T05:48:26;15.35;;;6.22;;
75261;SDS011;63859;51.064;4.580;2023-07-16T05:50:52;19.75;;;7.10;;
75261;SDS011;63859;51.064;4.580;2023-07-16T05:53:17;14.38;;;6.63;;
75261;SDS011;63859;51.064;4.580;2023-07-16T05:55:43;20.48;;;7.30;;
75261;SDS011;63859;51.064;4.580;2023-07-16T05:58:08;16.08;;;6.35;;
75261;SDS011;63859;51.064;4.580;2023-07-16T06:00:34;14.55;;;6.78;;
75261;SDS011;63859;51.064;4.580;2023-07-16T06:03:02;24.52;;;6.80;;
75261;SDS011;63859;51.064;4.580;2023-07-16T06:05:28;14.82;;;6.82;;
75261;SDS011;63859;51.064;4.580;2023-07-16T06:07:57;14.48;;;6.70;;
75261;SDS011;63859;51.064;4.580;2023-07-16T06:10:23;16.52;;;7.03;;
75261;SDS011;63859;51.064;4.580;2023-07-16T06:12:49;15.68;;;6.70;;
75261;SDS011;63859;51.064;4.580;2023-07-16T06:15:14;12.02;;;6.90;;
75261;SDS011;63859;51.064;4.580;2023-07-16T06:17:40;19.20;;;7.28;;
75261;SDS011;63859;51.064;4.580;2023-07-16T06:20:06;14.70;;;6.80;;
75261;SDS011;63859;51.064;4.580;2023-07-16T06:22:33;17.77;;;7.00;;
75261;SDS011;63859;51.064;4.580;2023-07-16T06:24:58;19.58;;;7.15;;
75261;SDS011;63859;51.064;4.580;2023-07-16T06:27:24;21.27;;;7.72;;
75261;SDS011;63859;51.064;4.580;2023-07-16T06:29:50;17.73;;;7.05;;
75261;SDS011;63859;51.064;4.580;2023-07-16T06:32:16;11.88;;;6.28;;
75261;SDS011;63859;51.064;4.580;2023-07-16T06:34:42;17.35;;;7.10;;
75261;SDS011;63859;51.064;4.580;2023-07-16T06:37:08;11.75;;;6.32;;
75261;SDS011;63859;51.064;4.580;2023-07-16T06:39:33;19.02;;;7.20;;
75261;SDS011;63859;51.064;4.580;2023-07-16T06:41:59;13.32;;;6.32;;
75261;SDS011;63859;51.064;4.580;2023-07-16T06:44:25;15.95;;;6.68;;
75261;SDS011;63859;51.064;4.580;2023-07-16T06:46:50;15.90;;;6.95;;
75261;SDS011;63859;51.064;4.580;2023-07-16T06:49:16;17.85;;;7.25;;
75261;SDS011;63859;51.064;4.580;2023-07-16T06:51:42;14.57;;;6.68;;
75261;SDS011;63859;51.064;4.580;2023-07-16T06:54:07;15.95;;;7.20;;
75261;SDS011;63859;51.064;4.580;2023-07-16T06:56:33;18.60;;;7.00;;
75261;SDS011;63859;51.064;4.580;2023-07-16T06:58:58;18.13;;;6.82;;
75261;SDS011;63859;51.064;4.580;2023-07-16T07:01:24;17.55;;;7.20;;
75261;SDS011;63859;51.064;4.580;2023-07-16T07:03:52;14.40;;;7.00;;
75261;SDS011;63859;51.064;4.580;2023-07-16T07:06:18;19.52;;;6.68;;
75261;SDS011;63859;51.064;4.580;2023-07-16T07:08:44;15.80;;;7.40;;
75261;SDS011;63859;51.064;4.580;2023-07-16T07:11:09;13.68;;;6.82;;
75261;SDS011;63859;51.064;4.580;2023-07-16T07:13:35;16.27;;;6.25;;
75261;SDS011;63859;51.064;4.580;2023-07-16T07:16:01;11.23;;;6.38;;
75261;SDS011;63859;51.064;4.580;2023-07-16T07:18:26;22.23;;;6.38;;
75261;SDS011;63859;51.064;4.580;2023-07-16T07:20:52;16.50;;;6.70;;
75261;SDS011;63859;51.064;4.580;2023-07-16T07:23:18;13.13;;;6.18;;
75261;SDS011;63859;51.064;4.580;2023-07-16T07:25:43;21.80;;;7.10;;
75261;SDS011;63859;51.064;4.580;2023-07-16T07:28:15;14.63;;;6.68;;
75261;SDS011;63859;51.064;4.580;2023-07-16T07:30:40;18.90;;;7.70;;
75261;SDS011;63859;51.064;4.580;2023-07-16T07:33:06;14.85;;;5.93;;
75261;SDS011;63859;51.064;4.580;2023-07-16T07:35:31;16.58;;;7.05;;
75261;SDS011;63859;51.064;4.580;2023-07-16T07:37:57;15.63;;;6.50;;
75261;SDS011;63859;51.064;4.580;2023-07-16T07:40:23;17.38;;;6.80;;
75261;SDS011;63859;51.064;4.580;2023-07-16T07:42:48;11.18;;;6.15;;
75261;SDS011;63859;51.064;4.580;2023-07-16T07:45:14;14.63;;;6.20;;
75261;SDS011;63859;51.064;4.580;2023-07-16T07:47:40;14.98;;;6.70;;
75261;SDS011;63859;51.064;4.580;2023-07-16T07:50:06;12.43;;;6.55;;
75261;SDS011;63859;51.064;4.580;2023-07-16T07:52:32;18.27;;;7.10;;
75261;SDS011;63859;51.064;4.580;2023-07-16T07:54:57;14.75;;;6.20;;
75261;SDS011;63859;51.064;4.580;2023-07-16T07:57:23;13.55;;;6.38;;
75261;SDS011;63859;51.064;4.580;2023-07-16T07:59:49;17.10;;;6.60;;
75261;SDS011;63859;51.064;4.580;2023-07-16T08:02:17;12.05;;;6.63;;
75261;SDS011;63859;51.064;4.580;2023-07-16T08:04:43;13.43;;;5.97;;
75261;SDS011;63859;51.064;4.580;2023-07-16T08:07:10;13.57;;;6.80;;
75261;SDS011;63859;51.064;4.580;2023-07-16T08:09:37;15.23;;;6.43;;
75261;SDS011;63859;51.064;4.580;2023-07-16T08:12:03;16.83;;;7.30;;
75261;SDS011;63859;51.064;4.580;2023-07-16T08:14:28;14.23;;;6.40;;
75261;SDS011;63859;51.064;4.580;2023-07-16T08:16:54;16.33;;;6.95;;
75261;SDS011;63859;51.064;4.580;2023-07-16T08:19:20;18.27;;;6.75;;
75261;SDS011;63859;51.064;4.580;2023-07-16T08:21:45;16.02;;;6.18;;
75261;SDS011;63859;51.064;4.580;2023-07-16T08:24:11;15.60;;;6.30;;
75261;SDS011;63859;51.064;4.580;2023-07-16T08:26:36;11.88;;;6.13;;
75261;SDS011;63859;51.064;4.580;2023-07-16T08:29:02;14.02;;;5.95;;
75261;SDS011;63859;51.064;4.580;2023-07-16T08:31:28;19.10;;;6.28;;
75261;SDS011;63859;51.064;4.580;2023-07-16T08:33:54;16.00;;;5.47;;
75261;SDS011;63859;51.064;4.580;2023-07-16T08:36:20;13.13;;;6.32;;
75261;SDS011;63859;51.064;4.580;2023-07-16T08:38:45;16.02;;;6.28;;
75261;SDS011;63859;51.064;4.580;2023-07-16T08:41:11;15.93;;;6.03;;
75261;SDS011;63859;51.064;4.580;2023-07-16T08:43:37;13.57;;;6.07;;
75261;SDS011;63859;51.064;4.580;2023-07-16T08:46:04;11.93;;;6.10;;
75261;SDS011;63859;51.064;4.580;2023-07-16T08:48:30;17.98;;;6.47;;
75261;SDS011;63859;51.064;4.580;2023-07-16T08:50:57;16.10;;;5.75;;
75261;SDS011;63859;51.064;4.580;2023-07-16T08:53:26;17.60;;;5.93;;
75261;SDS011;63859;51.064;4.580;2023-07-16T08:55:52;15.10;;;5.78;;
75261;SDS011;63859;51.064;4.580;2023-07-16T08:58:18;13.95;;;5.60;;
75261;SDS011;63859;51.064;4.580;2023-07-16T09:00:46;12.63;;;5.47;;
75261;SDS011;63859;51.064;4.580;2023-07-16T09:03:13;13.32;;;5.53;;
75261;SDS011;63859;51.064;4.580;2023-07-16T09:05:41;10.85;;;5.53;;
75261;SDS011;63859;51.064;4.580;2023-07-16T09:08:08;14.60;;;5.63;;
75261;SDS011;63859;51.064;4.580;2023-07-16T09:10:34;10.55;;;5.80;;
75261;SDS011;63859;51.064;4.580;2023-07-16T09:13:00;12.95;;;5.57;;
75261;SDS011;63859;51.064;4.580;2023-07-16T09:15:27;13.57;;;5.68;;
75261;SDS011;63859;51.064;4.580;2023-07-16T09:17:54;13.82;;;5.95;;
75261;SDS011;63859;51.064;4.580;2023-07-16T09:20:21;8.85;;;5.32;;
75261;SDS011;63859;51.064;4.580;2023-07-16T09:22:53;15.73;;;5.85;;
75261;SDS011;63859;51.064;4.580;2023-07-16T09:25:29;9.50;;;5.10;;
75261;SDS011;63859;51.064;4.580;2023-07-16T09:27:57;15.20;;;5.25;;
75261;SDS011;63859;51.064;4.580;2023-07-16T09:30:30;11.48;;;4.78;;
75261;SDS011;63859;51.064;4.580;2023-07-16T09:32:58;10.15;;;4.47;;
75261;SDS011;63859;51.064;4.580;2023-07-16T09:35:37;8.93;;;4.53;;
75261;SDS011;63859;51.064;4.580;2023-07-16T09:38:02;9.70;;;4.47;;
75261;SDS011;63859;51.064;4.580;2023-07-16T09:40:29;11.15;;;4.63;;
75261;SDS011;63859;51.064;4.580;2023-07-16T09:42:55;12.63;;;5.00;;
75261;SDS011;63859;51.064;4.580;2023-07-16T09:45:21;11.57;;;5.03;;
75261;SDS011;63859;51.064;4.580;2023-07-16T09:47:47;15.48;;;5.00;;
75261;SDS011;63859;51.064;4.580;2023-07-16T09:50:13;14.30;;;4.60;;
75261;SDS011;63859;51.064;4.580;2023-07-16T09:52:39;8.65;;;4.55;;
75261;SDS011;63859;51.064;4.580;2023-07-16T09:55:08;9.25;;;5.07;;
75261;SDS011;63859;51.064;4.580;2023-07-16T09:57:35;12.95;;;5.18;;
75261;SDS011;63859;51.064;4.580;2023-07-16T10:00:04;11.07;;;4.95;;
75261;SDS011;63859;51.064;4.580;2023-07-16T10:02:36;13.65;;;5.38;;
75261;SDS011;63859;51.064;4.580;2023-07-16T10:05:14;8.43;;;4.45;;
75261;SDS011;63859;51.064;4.580;2023-07-16T10:07:41;10.32;;;5.03;;
75261;SDS011;63859;51.064;4.580;2023-07-16T10:10:08;12.57;;;5.30;;
75261;SDS011;63859;51.064;4.580;2023-07-16T10:12:36;9.40;;;5.47;;
75261;SDS011;63859;51.064;4.580;2023-07-16T10:15:03;15.55;;;5.70;;
75261;SDS011;63859;51.064;4.580;2023-07-16T10:17:31;12.93;;;4.53;;
75261;SDS011;63859;51.064;4.580;2023-07-16T10:25:05;10.57;;;4.97;;
75261;SDS011;63859;51.064;4.580;2023-07-16T10:27:32;14.18;;;5.40;;
75261;SDS011;63859;51.064;4.580;2023-07-16T10:29:59;12.20;;;5.45;;
75261;SDS011;63859;51.064;4.580;2023-07-16T10:32:28;14.82;;;5.70;;
75261;SDS011;63859;51.064;4.580;2023-07-16T10:34:55;10.82;;;4.97;;
75261;SDS011;63859;51.064;4.580;2023-07-16T10:37:21;15.40;;;5.40;;
75261;SDS011;63859;51.064;4.580;2023-07-16T10:39:48;11.68;;;5.50;;
75261;SDS011;63859;51.064;4.580;2023-07-16T10:42:21;12.30;;;5.35;;
75261;SDS011;63859;51.064;4.580;2023-07-16T10:44:51;15.07;;;5.72;;
75261;SDS011;63859;51.064;4.580;2023-07-16T10:47:19;14.75;;;5.68;;
75261;SDS011;63859;51.064;4.580;2023-07-16T10:49:47;11.63;;;4.70;;
75261;SDS011;63859;51.064;4.580;2023-07-16T10:52:13;12.10;;;4.80;;
75261;SDS011;63859;51.064;4.580;2023-07-16T10:54:42;11.18;;;5.15;;
75261;SDS011;63859;51.064;4.580;2023-07-16T10:57:07;12.95;;;5.60;;
75261;SDS011;63859;51.064;4.580;2023-07-16T10:59:36;9.95;;;4.95;;
75261;SDS011;63859;51.064;4.580;2023-07-16T11:02:03;13.32;;;5.30;;
75261;SDS011;63859;51.064;4.580;2023-07-16T11:04:33;13.90;;;5.50;;
75261;SDS011;63859;51.064;4.580;2023-07-16T11:07:03;11.60;;;4.63;;
75261;SDS011;63859;51.064;4.580;2023-07-16T11:09:34;14.85;;;5.30;;
75261;SDS011;63859;51.064;4.580;2023-07-16T11:12:06;11.90;;;4.72;;
75261;SDS011;63859;51.064;4.580;2023-07-16T11:14:33;9.57;;;4.63;;
75261;SDS011;63859;51.064;4.580;2023-07-16T11:17:07;15.07;;;5.15;;
75261;SDS011;63859;51.064;4.580;2023-07-16T11:19:34;15.10;;;4.88;;
75261;SDS011;63859;51.064;4.580;2023-07-16T11:22:02;12.00;;;4.50;;
75261;SDS011;63859;51.064;4.580;2023-07-16T11:24:35;8.20;;;4.30;;
75261;SDS011;63859;51.064;4.580;2023-07-16T11:27:06;9.55;;;4.35;;
75261;SDS011;63859;51.064;4.580;2023-07-16T11:29:39;9.48;;;4.25;;
75261;SDS011;63859;51.064;4.580;2023-07-16T11:32:07;11.70;;;4.93;;
75261;SDS011;63859;51.064;4.580;2023-07-16T11:34:32;14.65;;;5.00;;
75261;SDS011;63859;51.064;4.580;2023-07-16T11:37:08;9.85;;;4.75;;
75261;SDS011;63859;51.064;4.580;2023-07-16T11:39:34;10.77;;;4.90;;
75261;SDS011;63859;51.064;4.580;2023-07-16T11:42:01;9.50;;;4.93;;
75261;SDS011;63859;51.064;4.580;2023-07-16T11:44:32;11.23;;;5.40;;
75261;SDS011;63859;51.064;4.580;2023-07-16T11:46:58;8.43;;;4.72;;
75261;SDS011;63859;51.064;4.580;2023-07-16T11:49:24;8.02;;;3.95;;
75261;SDS011;63859;51.064;4.580;2023-07-16T11:51:50;5.53;;;3.60;;
75261;SDS011;63859;51.064;4.580;2023-07-16T11:54:16;11.23;;;4.30;;
75261;SDS011;63859;51.064;4.580;2023-07-16T11:56:41;9.20;;;3.95;;
75261;SDS011;63859;51.064;4.580;2023-07-16T11:59:07;6.47;;;3.63;;
75261;SDS011;63859;51.064;4.580;2023-07-16T12:01:33;7.30;;;3.42;;
75261;SDS011;63859;51.064;4.580;2023-07-16T12:03:58;6.82;;;3.20;;
75261;SDS011;63859;51.064;4.580;2023-07-16T12:06:24;8.50;;;3.88;;
75261;SDS011;63859;51.064;4.580;2023-07-16T12:08:50;6.00;;;3.67;;
75261;SDS011;63859;51.064;4.580;2023-07-16T12:11:15;9.18;;;3.67;;
75261;SDS011;63859;51.064;4.580;2023-07-16T12:13:41;9.15;;;3.88;;
75261;SDS011;63859;51.064;4.580;2023-07-16T12:16:06;9.15;;;3.85;;
75261;SDS011;63859;51.064;4.580;2023-07-16T12:18:32;8.45;;;4.00;;
75261;SDS011;63859;51.064;4.580;2023-07-16T12:20:58;9.18;;;3.80;;
75261;SDS011;63859;51.064;4.580;2023-07-16T12:23:23;7.03;;;3.80;;
75261;SDS011;63859;51.064;4.580;2023-07-16T12:25:49;8.75;;;3.97;;
75261;SDS011;63859;51.064;4.580;2023-07-16T12:28:15;10.18;;;4.03;;
75261;SDS011;63859;51.064;4.580;2023-07-16T12:30:41;9.02;;;3.92;;
75261;SDS011;63859;51.064;4.580;2023-07-16T12:33:06;11.10;;;4.10;;
75261;SDS011;63859;51.064;4.580;2023-07-16T12:35:32;10.05;;;4.30;;
75261;SDS011;63859;51.064;4.580;2023-07-16T12:37:58;10.60;;;4.18;;
75261;SDS011;63859;51.064;4.580;2023-07-16T12:40:24;9.63;;;3.97;;
75261;SDS011;63859;51.064;4.580;2023-07-16T12:42:50;7.55;;;3.92;;
75261;SDS011;63859;51.064;4.580;2023-07-16T12:45:16;5.72;;;3.40;;
75261;SDS011;63859;51.064;4.580;2023-07-16T12:47:42;9.60;;;3.90;;
75261;SDS011;63859;51.064;4.580;2023-07-16T12:50:07;8.55;;;3.50;;
75261;SDS011;63859;51.064;4.580;2023-07-16T12:52:33;7.68;;;3.50;;
75261;SDS011;63859;51.064;4.580;2023-07-16T12:54:59;8.10;;;3.70;;
75261;SDS011;63859;51.064;4.580;2023-07-16T12:57:25;10.38;;;3.90;;
75261;SDS011;63859;51.064;4.580;2023-07-16T12:59:50;7.00;;;3.63;;
75261;SDS011;63859;51.064;4.580;2023-07-16T13:02:16;5.15;;;3.20;;
75261;SDS011;63859;51.064;4.580;2023-07-16T13:04:41;5.97;;;3.22;;
75261;SDS011;63859;51.064;4.580;2023-07-16T13:07:07;11.10;;;4.10;;
75261;SDS011;63859;51.064;4.580;2023-07-16T13:09:33;9.10;;;3.65;;
75261;SDS011;63859;51.064;4.580;2023-07-16T13:11:59;7.22;;;3.45;;
75261;SDS011;63859;51.064;4.580;2023-07-16T13:14:25;9.02;;;3.40;;
75261;SDS011;63859;51.064;4.580;2023-07-16T13:16:51;5.55;;;3.20;;
75261;SDS011;63859;51.064;4.580;2023-07-16T13:19:17;7.90;;;3.25;;
75261;SDS011;63859;51.064;4.580;2023-07-16T13:21:42;10.45;;;3.58;;
75261;SDS011;63859;51.064;4.580;2023-07-16T13:24:08;6.28;;;3.10;;
75261;SDS011;63859;51.064;4.580;2023-07-16T13:26:33;7.03;;;3.65;;
75261;SDS011;63859;51.064;4.580;2023-07-16T13:28:59;9.63;;;3.63;;
75261;SDS011;63859;51.064;4.580;2023-07-16T13:31:25;7.32;;;3.28;;
75261;SDS011;63859;51.064;4.580;2023-07-16T13:33:50;6.20;;;3.40;;
75261;SDS011;63859;51.064;4.580;2023-07-16T13:36:16;7.47;;;3.10;;
75261;SDS011;63859;51.064;4.580;2023-07-16T13:38:41;7.65;;;3.40;;
75261;SDS011;63859;51.064;4.580;2023-07-16T13:41:07;6.55;;;3.00;;
75261;SDS011;63859;51.064;4.580;2023-07-16T13:43:33;6.90;;;2.83;;
75261;SDS011;63859;51.064;4.580;2023-07-16T13:45:58;7.32;;;2.95;;
75261;SDS011;63859;51.064;4.580;2023-07-16T13:48:24;6.28;;;3.42;;
75261;SDS011;63859;51.064;4.580;2023-07-16T13:50:49;6.80;;;3.10;;
75261;SDS011;63859;51.064;4.580;2023-07-16T13:53:15;7.88;;;3.30;;
75261;SDS011;63859;51.064;4.580;2023-07-16T13:55:41;5.28;;;2.70;;
75261;SDS011;63859;51.064;4.580;2023-07-16T13:58:08;6.47;;;2.80;;
75261;SDS011;63859;51.064;4.580;2023-07-16T14:00:34;6.65;;;2.85;;
75261;SDS011;63859;51.064;4.580;2023-07-16T14:02:59;6.15;;;2.50;;
75261;SDS011;63859;51.064;4.580;2023-07-16T14:05:25;6.07;;;2.67;;
75261;SDS011;63859;51.064;4.580;2023-07-16T14:07:51;5.68;;;2.83;;
75261;SDS011;63859;51.064;4.580;2023-07-16T14:10:18;3.38;;;2.05;;
75261;SDS011;63859;51.064;4.580;2023-07-16T14:12:44;5.07;;;1.63;;
75261;SDS011;63859;51.064;4.580;2023-07-16T14:15:10;3.22;;;1.63;;
75261;SDS011;63859;51.064;4.580;2023-07-16T14:17:35;5.53;;;2.00;;
75261;SDS011;63859;51.064;4.580;2023-07-16T14:20:01;4.95;;;2.20;;
75261;SDS011;63859;51.064;4.580;2023-07-16T14:22:26;4.03;;;2.00;;
75261;SDS011;63859;51.064;4.580;2023-07-16T14:24:53;3.75;;;2.10;;
75261;SDS011;63859;51.064;4.580;2023-07-16T14:27:18;5.32;;;2.50;;
75261;SDS011;63859;51.064;4.580;2023-07-16T14:29:45;6.78;;;2.58;;
75261;SDS011;63859;51.064;4.580;2023-07-16T14:32:11;5.18;;;2.47;;
75261;SDS011;63859;51.064;4.580;2023-07-16T14:34:38;3.05;;;2.20;;
75261;SDS011;63859;51.064;4.580;2023-07-16T14:37:03;4.45;;;2.42;;
75261;SDS011;63859;51.064;4.580;2023-07-16T14:39:29;4.40;;;2.10;;
75261;SDS011;63859;51.064;4.580;2023-07-16T14:41:55;6.28;;;2.40;;
75261;SDS011;63859;51.064;4.580;2023-07-16T14:44:21;5.38;;;2.22;;
75261;SDS011;63859;51.064;4.580;2023-07-16T14:46:46;3.35;;;2.15;;